KMWO

Middletown Regional / Hook Field Airport

Middletown, Ohio, USA
METAR KMWO 150035Z AUTO 00000KT 10SM CLR 24/21 A3001 RMK AO2 T02370209
Observed Flight Rules
Aug-15 @ 00:35 UTC (31 minutes ago) Visual Flight Rules
Visibility Clouds
10 miles
  • Clear skies
Temperatures Readings
Current 24°C / 75°F
Dewpoint 21°C / 70°F
Humidity 83%
Altimeter 30.01" Hg
Pressure 1016 hPa
Elevation 198
METAR KMWO 150035Z AUTO 00000KT 10SM CLR 24/21 A3001 RMK AO2 T02370209
Observed Flight Rules
Aug-15 @ 00:35 UTC
(31 minutes ago)
VFR
Clouds
  • Clear skies
Temperature Dewpoint
24°C / 75°F 21°C / 70°F
Humidity Altimeter Pressure
83% 30.01" Hg 1016 hPa